Time;durP1;ratioP1;P1;durP2;ratioP2;P2;SDS_P1;SDS_P2;PMS_P1;PMS_P2;Temp;Humidity;BMP_temperature;BMP_pressure;BME280_temperature;BME280_humidity;BME280_pressure;Samples;Min_cycle;Max_cycle;Signal;HPM_P1;HPM_P2
2022/11/29 00:01:48;;;;;;;81.97;25.97;;;4.80;99.90;;;;;;4837676;29;20216;-56
2022/11/29 00:04:16;;;;;;;69.03;26.53;;;4.70;99.90;;;;;;4838068;29;20222;-56
2022/11/29 00:06:46;;;;;;;59.93;24.90;;;4.70;99.90;;;;;;4839846;29;20214;-56
2022/11/29 00:09:15;;;;;;;71.83;25.50;;;4.60;99.90;;;;;;4836840;29;20212;-56
2022/11/29 00:14:29;;;;;;;61.20;25.33;;;4.50;99.90;;;;;;4837443;29;20232;-56
2022/11/29 00:17:00;;;;;;;58.73;27.40;;;4.50;99.90;;;;;;4836966;29;20215;-56
2022/11/29 00:19:30;;;;;;;71.70;27.03;;;4.40;99.90;;;;;;4837565;29;20272;-56
2022/11/29 00:22:01;;;;;;;57.90;26.87;;;4.40;99.90;;;;;;4836644;29;20217;-56
2022/11/29 00:24:31;;;;;;;56.37;27.07;;;4.30;99.90;;;;;;4836287;29;20212;-56
2022/11/29 00:27:00;;;;;;;60.03;25.80;;;4.30;99.90;;;;;;4836294;29;20200;-56
2022/11/29 00:29:29;;;;;;;59.50;23.97;;;4.30;99.90;;;;;;4841922;29;20576;-56
2022/11/29 00:31:58;;;;;;;60.60;24.13;;;4.20;99.90;;;;;;4835262;29;20227;-56
2022/11/29 00:34:26;;;;;;;52.77;23.43;;;4.10;99.90;;;;;;4836696;29;20204;-55
2022/11/29 00:36:54;;;;;;;52.77;23.00;;;4.10;99.90;;;;;;4833881;29;20584;-56
2022/11/29 00:39:24;;;;;;;45.00;21.90;;;4.00;99.90;;;;;;4837712;29;20207;-56
2022/11/29 00:41:53;;;;;;;59.20;22.70;;;3.90;99.90;;;;;;4838299;29;20231;-55
2022/11/29 00:44:21;;;;;;;65.47;22.90;;;3.90;99.90;;;;;;4839757;29;20342;-56
2022/11/29 00:46:49;;;;;;;66.97;23.77;;;3.80;99.90;;;;;;4837320;29;20223;-55
2022/11/29 00:49:18;;;;;;;97.40;24.17;;;3.70;99.90;;;;;;4838040;29;20663;-56
2022/11/29 00:51:46;;;;;;;61.80;21.77;;;3.70;99.90;;;;;;4833943;29;20205;-56
2022/11/29 00:54:15;;;;;;;57.17;23.73;;;3.70;99.90;;;;;;4841213;29;20208;-55
2022/11/29 00:56:45;;;;;;;52.30;24.10;;;3.70;99.90;;;;;;4836362;29;20240;-56
2022/11/29 00:59:13;;;;;;;36.47;20.27;;;3.60;99.90;;;;;;4837439;29;20196;-56
2022/11/29 01:01:42;;;;;;;65.57;22.87;;;3.60;99.90;;;;;;4838209;29;20215;-56
2022/11/29 01:04:10;;;;;;;72.37;22.00;;;3.60;99.90;;;;;;4839182;29;20509;-54
2022/11/29 01:06:38;;;;;;;113.77;27.67;;;3.60;99.90;;;;;;4838146;29;20282;-56
2022/11/29 01:09:06;;;;;;;55.13;22.73;;;3.60;99.90;;;;;;4837468;29;20227;-55
2022/11/29 01:11:35;;;;;;;58.50;23.20;;;3.50;99.90;;;;;;4836597;29;20207;-56
2022/11/29 01:14:05;;;;;;;83.40;23.60;;;3.50;99.90;;;;;;4838050;29;20219;-56
2022/11/29 01:16:33;;;;;;;47.73;22.60;;;3.50;99.90;;;;;;4837044;29;20212;-54
2022/11/29 01:19:02;;;;;;;65.87;23.87;;;3.50;99.90;;;;;;4838260;29;20204;-55
2022/11/29 01:21:31;;;;;;;47.67;24.97;;;3.50;99.90;;;;;;4838695;29;20204;-56
2022/11/29 01:24:00;;;;;;;48.80;25.60;;;3.60;99.90;;;;;;4841445;29;20218;-56
2022/11/29 01:26:30;;;;;;;56.87;25.60;;;3.60;99.90;;;;;;4836863;29;20196;-56
2022/11/29 01:28:59;;;;;;;61.00;23.73;;;3.70;99.90;;;;;;4838543;29;20208;-58
2022/11/29 01:31:31;;;;;;;71.90;25.00;;;3.80;99.90;;;;;;4841099;29;20203;-54
2022/11/29 01:34:02;;;;;;;45.77;23.47;;;3.80;99.90;;;;;;4841980;29;20204;-58
2022/11/29 01:36:30;;;;;;;59.77;24.13;;;3.80;99.90;;;;;;4843349;29;20204;-56
2022/11/29 01:39:00;;;;;;;57.17;23.33;;;3.70;99.90;;;;;;4843376;29;20215;-56
2022/11/29 01:41:30;;;;;;;65.23;24.13;;;3.70;99.90;;;;;;4844168;29;20188;-56
2022/11/29 01:44:01;;;;;;;72.60;24.17;;;3.70;99.90;;;;;;4841694;29;20227;-55
2022/11/29 01:46:33;;;;;;;55.00;22.37;;;3.70;99.90;;;;;;4840319;29;20673;-56
2022/11/29 01:49:06;;;;;;;47.07;23.03;;;3.60;99.90;;;;;;4839137;29;20227;-56
2022/11/29 01:51:39;;;;;;;83.97;23.67;;;3.60;99.90;;;;;;4854989;29;20196;-56
2022/11/29 01:54:10;;;;;;;44.60;22.67;;;3.60;99.90;;;;;;4840879;29;20698;-56
2022/11/29 01:56:38;;;;;;;53.20;23.27;;;3.50;99.90;;;;;;4840788;29;20247;-56
2022/11/29 01:59:11;;;;;;;61.07;22.50;;;3.60;99.90;;;;;;4838590;29;20219;-55
2022/11/29 02:01:42;;;;;;;58.40;24.03;;;3.60;99.90;;;;;;4838420;29;20256;-56
2022/11/29 02:04:11;;;;;;;36.20;21.87;;;3.60;99.90;;;;;;4834436;29;20239;-57
2022/11/29 02:06:41;;;;;;;62.40;23.43;;;3.60;99.90;;;;;;4842133;29;20196;-58
2022/11/29 02:09:17;;;;;;;43.20;22.07;;;3.60;99.90;;;;;;4839636;29;20253;-56
2022/11/29 02:12:01;;;;;;;56.90;22.93;;;3.60;99.90;;;;;;4851685;29;20207;-55
2022/11/29 02:14:53;;;;;;;54.43;20.83;;;3.50;99.90;;;;;;4837521;29;20231;-56
2022/11/29 02:17:32;;;;;;;48.10;21.10;;;3.50;99.90;;;;;;4841486;29;20200;-55
2022/11/29 02:20:35;;;;;;;43.67;21.37;;;3.40;99.90;;;;;;4839840;29;20208;-56
2022/11/29 02:23:23;;;;;;;44.60;21.57;;;3.40;99.90;;;;;;4815804;29;20249;-56
2022/11/29 02:26:07;;;;;;;45.23;21.50;;;3.40;99.90;;;;;;4836753;29;20204;-55
2022/11/29 02:28:55;;;;;;;53.53;23.00;;;3.40;99.90;;;;;;4841035;29;20200;-56
2022/11/29 02:32:02;;;;;;;55.83;23.43;;;3.40;99.90;;;;;;4836022;29;20207;-56
2022/11/29 02:34:56;;;;;;;70.93;23.47;;;3.30;99.90;;;;;;4838383;29;20215;-54
2022/11/29 02:37:48;;;;;;;46.93;21.43;;;3.30;99.90;;;;;;4842094;29;20208;-56
2022/11/29 02:40:51;;;;;;;42.93;21.47;;;3.30;99.90;;;;;;4839468;29;20226;-56
2022/11/29 02:43:34;;;;;;;58.27;21.03;;;3.30;99.90;;;;;;4820460;29;20231;-58
2022/11/29 02:46:14;;;;;;;53.80;20.43;;;3.30;99.90;;;;;;4848329;29;20208;-58
2022/11/29 02:48:55;;;;;;;54.90;20.77;;;3.20;99.90;;;;;;4839916;29;20243;-56
2022/11/29 02:51:33;;;;;;;56.80;21.50;;;3.10;99.90;;;;;;4835098;29;20216;-55
2022/11/29 02:54:12;;;;;;;48.90;20.80;;;3.10;99.90;;;;;;4840569;29;20204;-56
2022/11/29 02:56:46;;;;;;;91.33;22.33;;;3.00;99.90;;;;;;4839476;29;20248;-56
2022/11/29 02:59:24;;;;;;;53.53;20.60;;;3.00;99.90;;;;;;4836432;29;20203;-56
2022/11/29 03:02:01;;;;;;;70.90;20.93;;;3.00;99.90;;;;;;4839687;29;20571;-56
2022/11/29 03:04:37;;;;;;;81.87;21.67;;;3.00;99.90;;;;;;4836847;29;20314;-57
2022/11/29 03:07:15;;;;;;;41.20;19.90;;;3.00;99.90;;;;;;4838485;29;20640;-56
2022/11/29 03:09:49;;;;;;;42.93;20.33;;;3.00;99.90;;;;;;4839822;29;20196;-55
2022/11/29 03:12:25;;;;;;;60.50;21.30;;;3.10;99.90;;;;;;4838759;29;20208;-56
2022/11/29 03:15:07;;;;;;;57.07;20.90;;;3.10;99.90;;;;;;4841163;29;20219;-55
2022/11/29 03:17:46;;;;;;;80.97;23.03;;;3.10;99.90;;;;;;4841857;29;20204;-55
2022/11/29 03:20:28;;;;;;;49.70;20.73;;;3.00;99.90;;;;;;4840045;29;20260;-59
2022/11/29 03:23:14;;;;;;;59.17;20.87;;;3.00;99.90;;;;;;4837633;29;20215;-55
2022/11/29 03:25:48;;;;;;;98.03;23.27;;;3.00;99.90;;;;;;4842834;29;20208;-55
2022/11/29 03:28:20;;;;;;;101.53;23.10;;;3.00;99.90;;;;;;4839455;29;20196;-55
2022/11/29 03:30:54;;;;;;;63.20;21.00;;;3.00;99.90;;;;;;4842954;29;20217;-57
2022/11/29 03:33:32;;;;;;;47.87;20.60;;;3.00;99.90;;;;;;4840597;29;20196;-58
2022/11/29 03:36:08;;;;;;;41.90;20.30;;;3.10;99.90;;;;;;4847924;29;20206;-59
2022/11/29 03:38:41;;;;;;;44.83;20.97;;;3.00;99.90;;;;;;4842989;29;20207;-57
2022/11/29 03:41:19;;;;;;;63.40;22.53;;;3.00;99.90;;;;;;4850761;29;20251;-56
2022/11/29 03:43:55;;;;;;;52.70;20.77;;;3.00;99.90;;;;;;4836727;29;20232;-56
2022/11/29 03:46:31;;;;;;;49.20;19.97;;;3.00;99.90;;;;;;4827047;29;20526;-55
2022/11/29 03:49:06;;;;;;;53.40;20.07;;;2.90;99.90;;;;;;4835605;29;20274;-55
2022/11/29 03:51:46;;;;;;;56.43;20.80;;;2.90;99.90;;;;;;4841170;29;20203;-54
2022/11/29 03:54:22;;;;;;;31.47;19.63;;;2.90;99.90;;;;;;4834822;29;20218;-56
2022/11/29 03:56:50;;;;;;;41.93;19.97;;;2.80;99.90;;;;;;4838791;29;20247;-55
2022/11/29 03:59:36;;;;;;;32.07;19.77;;;2.80;99.90;;;;;;4840291;29;20204;-55
2022/11/29 04:02:52;;;;;;;39.67;19.33;;;2.80;99.90;;;;;;4847119;29;20223;-56
2022/11/29 04:05:58;;;;;;;30.67;19.57;;;2.80;99.90;;;;;;4841332;29;20224;-57
2022/11/29 04:09:13;;;;;;;31.57;18.43;;;2.70;99.90;;;;;;4836149;29;20647;-57
2022/11/29 04:12:06;;;;;;;28.80;16.97;;;2.70;99.90;;;;;;4838704;29;20548;-57
2022/11/29 04:15:14;;;;;;;32.70;18.73;;;2.60;99.90;;;;;;4838547;29;20285;-58
2022/11/29 04:18:19;;;;;;;28.30;18.37;;;2.60;99.90;;;;;;4837819;29;20671;-58
2022/11/29 04:21:20;;;;;;;32.03;18.73;;;2.50;99.90;;;;;;4841904;29;20214;-56
2022/11/29 04:24:04;;;;;;;32.20;18.30;;;2.50;99.90;;;;;;4832011;29;20228;-57
2022/11/29 04:27:16;;;;;;;30.67;18.30;;;2.50;99.90;;;;;;4837582;29;20200;-58
2022/11/29 04:30:08;;;;;;;39.57;18.87;;;2.60;99.90;;;;;;4837425;29;20225;-58
2022/11/29 04:33:14;;;;;;;38.77;20.10;;;2.60;99.90;;;;;;4837729;29;20256;-57
2022/11/29 04:36:11;;;;;;;34.83;19.23;;;2.70;99.90;;;;;;4823302;29;20206;-56
2022/11/29 04:39:07;;;;;;;27.93;17.27;;;2.70;99.90;;;;;;4838896;29;20196;-56
2022/11/29 04:41:56;;;;;;;33.33;19.30;;;2.80;99.90;;;;;;4818758;29;20192;-57
2022/11/29 04:44:46;;;;;;;31.23;18.80;;;2.90;99.90;;;;;;4821437;29;20318;-58
2022/11/29 04:47:42;;;;;;;34.00;19.33;;;2.90;99.90;;;;;;4838247;29;20212;-58
2022/11/29 04:50:36;;;;;;;33.90;18.57;;;2.90;99.90;;;;;;4838037;29;20651;-57
2022/11/29 04:53:28;;;;;;;32.93;20.20;;;3.00;99.90;;;;;;4847939;29;20199;-57
2022/11/29 04:56:08;;;;;;;31.77;19.20;;;3.00;99.90;;;;;;4828384;29;20260;-58
2022/11/29 04:58:42;;;;;;;32.40;18.73;;;3.00;99.90;;;;;;4838813;29;20660;-56
2022/11/29 05:01:23;;;;;;;33.40;19.93;;;3.10;99.90;;;;;;4838653;29;20208;-55
2022/11/29 05:03:57;;;;;;;33.63;19.80;;;3.10;99.90;;;;;;4838400;29;21580;-57
2022/11/29 05:06:32;;;;;;;34.97;19.43;;;3.10;99.90;;;;;;4838245;29;20191;-57
2022/11/29 05:09:10;;;;;;;30.20;18.27;;;3.10;99.90;;;;;;4840884;29;20192;-58
2022/11/29 05:11:54;;;;;;;33.13;17.50;;;3.10;99.90;;;;;;4844110;29;20683;-57
2022/11/29 05:14:33;;;;;;;31.83;18.23;;;3.10;99.90;;;;;;4841495;29;20220;-58
2022/11/29 05:17:20;;;;;;;30.07;18.73;;;3.10;99.90;;;;;;4840803;29;20196;-58
2022/11/29 05:20:02;;;;;;;29.63;18.83;;;3.00;99.90;;;;;;4843510;29;20272;-58
2022/11/29 05:22:39;;;;;;;29.20;18.33;;;3.00;99.90;;;;;;4838380;29;20215;-57
2022/11/29 05:25:32;;;;;;;33.40;18.70;;;3.00;99.90;;;;;;4841258;29;20575;-56
2022/11/29 05:28:08;;;;;;;37.30;19.63;;;2.90;99.90;;;;;;4838655;29;20200;-57
2022/11/29 05:30:54;;;;;;;38.37;19.77;;;2.90;99.90;;;;;;4833639;29;20201;-57
2022/11/29 05:33:55;;;;;;;33.07;19.03;;;2.90;99.90;;;;;;4841842;29;20336;-58
2022/11/29 05:36:35;;;;;;;34.30;19.37;;;2.90;99.90;;;;;;4840218;29;20295;-55
2022/11/29 05:39:28;;;;;;;31.17;18.10;;;2.80;99.90;;;;;;4840628;29;20250;-58
2022/11/29 05:42:16;;;;;;;34.40;18.80;;;2.80;99.90;;;;;;4833388;29;20204;-57
2022/11/29 05:44:48;;;;;;;31.57;18.00;;;2.80;99.90;;;;;;4851712;29;20220;-57
2022/11/29 05:47:23;;;;;;;40.63;20.17;;;2.80;99.90;;;;;;4836161;29;20208;-57
2022/11/29 05:50:07;;;;;;;41.07;20.03;;;2.80;99.90;;;;;;4839304;29;20667;-58
2022/11/29 05:52:47;;;;;;;39.60;19.97;;;2.70;99.90;;;;;;4841088;29;20203;-57
2022/11/29 05:55:24;;;;;;;34.97;19.60;;;2.70;99.90;;;;;;4840204;29;20648;-57
2022/11/29 05:57:57;;;;;;;42.27;20.00;;;2.70;99.90;;;;;;4837097;29;20235;-57
2022/11/29 06:00:29;;;;;;;44.27;19.37;;;2.70;99.90;;;;;;4840605;29;20192;-58
2022/11/29 06:03:03;;;;;;;54.03;18.87;;;2.70;99.90;;;;;;4834646;29;20272;-57
2022/11/29 06:05:38;;;;;;;55.47;19.00;;;2.70;99.90;;;;;;4837705;29;20564;-58
2022/11/29 06:08:14;;;;;;;57.07;17.93;;;2.70;99.90;;;;;;4836909;29;20192;-58
2022/11/29 06:11:01;;;;;;;57.13;18.87;;;2.70;99.90;;;;;;4842988;29;20287;-58
2022/11/29 06:13:45;;;;;;;71.70;18.50;;;2.60;99.90;;;;;;4840700;29;20200;-57
2022/11/29 06:16:56;;;;;;;46.73;16.97;;;2.60;99.90;;;;;;4836243;29;20260;-57
2022/11/29 06:19:43;;;;;;;43.83;16.47;;;2.60;99.90;;;;;;4763074;30;20685;-58
2022/11/29 06:22:37;;;;;;;52.73;17.60;;;2.60;99.90;;;;;;4850808;29;20224;-58
2022/11/29 06:25:20;;;;;;;55.03;17.13;;;2.60;99.90;;;;;;4840924;29;20605;-56
2022/11/29 06:28:03;;;;;;;28.33;15.87;;;2.60;99.90;;;;;;4840009;29;20205;-57
2022/11/29 06:30:45;;;;;;;76.50;17.33;;;2.60;99.90;;;;;;4838791;29;20223;-56
2022/11/29 06:33:18;;;;;;;40.30;15.80;;;2.50;99.90;;;;;;4838564;29;20203;-57
2022/11/29 06:35:57;;;;;;;36.97;16.40;;;2.50;99.90;;;;;;4836366;29;20200;-58
2022/11/29 06:38:29;;;;;;;43.67;17.93;;;2.50;99.90;;;;;;4837416;29;20200;-58
2022/11/29 06:40:58;;;;;;;35.90;15.93;;;2.60;99.90;;;;;;4837903;29;20216;-57
2022/11/29 06:43:30;;;;;;;46.93;16.47;;;2.60;99.90;;;;;;4838024;29;20204;-55
2022/11/29 06:46:09;;;;;;;41.87;17.77;;;2.60;99.90;;;;;;4837075;29;20323;-58
2022/11/29 06:48:45;;;;;;;56.80;20.63;;;2.60;99.90;;;;;;4839832;29;20227;-58
2022/11/29 06:51:22;;;;;;;52.03;18.80;;;2.60;99.90;;;;;;4843830;29;20212;-56
2022/11/29 06:53:58;;;;;;;61.27;19.07;;;2.70;99.90;;;;;;4839155;29;20563;-58
2022/11/29 06:56:35;;;;;;;50.47;17.97;;;2.70;99.90;;;;;;4841613;29;20238;-57
2022/11/29 06:59:13;;;;;;;36.87;16.20;;;2.70;99.90;;;;;;4836321;29;20207;-57
2022/11/29 07:01:48;;;;;;;112.03;19.33;;;2.70;99.90;;;;;;4837838;29;20212;-58
2022/11/29 07:04:38;;;;;;;51.37;18.07;;;2.70;99.90;;;;;;4837082;29;20608;-58
2022/11/29 07:07:17;;;;;;;52.67;16.27;;;2.70;99.90;;;;;;4841864;29;20290;-58
2022/11/29 07:09:49;;;;;;;52.63;16.70;;;2.70;99.90;;;;;;4841949;29;20192;-58
2022/11/29 07:12:21;;;;;;;36.00;16.17;;;2.80;99.90;;;;;;4840233;29;20215;-57
2022/11/29 07:14:50;;;;;;;58.73;16.27;;;2.70;99.90;;;;;;4838322;29;20270;-57
2022/11/29 07:17:24;;;;;;;86.23;16.97;;;2.70;99.90;;;;;;4843196;29;20220;-57
2022/11/29 07:20:02;;;;;;;91.90;18.27;;;2.70;99.90;;;;;;4840852;29;20659;-57
2022/11/29 07:22:43;;;;;;;48.40;16.93;;;2.70;99.90;;;;;;4839249;29;20513;-57
2022/11/29 07:25:21;;;;;;;76.83;17.47;;;2.70;99.90;;;;;;4839540;29;20263;-58
2022/11/29 07:27:57;;;;;;;51.20;20.30;;;2.70;99.90;;;;;;4842104;29;20219;-57
2022/11/29 07:30:34;;;;;;;65.57;20.03;;;2.70;99.90;;;;;;4840798;29;20204;-57
2022/11/29 07:33:14;;;;;;;37.03;18.60;;;2.70;99.90;;;;;;4839144;29;20204;-57
2022/11/29 07:35:52;;;;;;;44.50;18.10;;;2.70;99.90;;;;;;4842290;29;20204;-56
2022/11/29 07:38:27;;;;;;;29.33;16.00;;;2.70;99.90;;;;;;4837585;29;20199;-56
2022/11/29 07:41:03;;;;;;;53.37;17.27;;;2.70;99.90;;;;;;4839685;29;20199;-58
2022/11/29 07:43:45;;;;;;;53.10;18.67;;;2.60;99.90;;;;;;4842195;29;20231;-58
2022/11/29 07:46:14;;;;;;;52.03;20.70;;;2.50;99.90;;;;;;4841843;29;20564;-58
2022/11/29 07:48:42;;;;;;;53.17;20.83;;;2.60;99.90;;;;;;4837871;29;20282;-57
2022/11/29 07:51:11;;;;;;;65.33;21.67;;;2.60;99.90;;;;;;4836077;29;20203;-56
2022/11/29 07:53:43;;;;;;;46.30;20.43;;;2.70;99.90;;;;;;4835497;29;20204;-57
2022/11/29 07:56:15;;;;;;;62.93;21.53;;;2.70;99.90;;;;;;4835402;29;20232;-58
2022/11/29 07:58:43;;;;;;;58.77;19.80;;;2.70;99.90;;;;;;4839749;29;20219;-57
2022/11/29 08:01:12;;;;;;;39.93;18.63;;;2.60;99.90;;;;;;4840602;29;20239;-58
2022/11/29 08:03:41;;;;;;;38.40;17.40;;;2.60;99.90;;;;;;4835910;29;20615;-58
2022/11/29 08:06:10;;;;;;;71.57;18.83;;;2.70;99.90;;;;;;4839941;29;20235;-57
2022/11/29 08:08:38;;;;;;;36.93;16.13;;;2.70;99.90;;;;;;4840232;29;20212;-57
2022/11/29 08:11:14;;;;;;;57.03;18.17;;;2.70;99.90;;;;;;4834047;29;20360;-57
2022/11/29 08:13:43;;;;;;;62.87;18.47;;;2.80;99.90;;;;;;4829989;29;20226;-56
2022/11/29 08:16:16;;;;;;;47.00;17.13;;;2.70;99.90;;;;;;4838737;29;20219;-57
2022/11/29 08:18:45;;;;;;;67.07;19.20;;;2.80;99.90;;;;;;4831223;29;20219;-57
2022/11/29 08:21:16;;;;;;;36.03;16.43;;;2.90;99.90;;;;;;4833868;29;20204;-58
2022/11/29 08:23:45;;;;;;;43.40;17.73;;;2.90;99.90;;;;;;4838021;29;20204;-57
2022/11/29 08:26:16;;;;;;;44.43;18.30;;;2.90;99.90;;;;;;4836455;29;20212;-57
2022/11/29 08:28:44;;;;;;;71.10;19.93;;;3.00;99.90;;;;;;4838831;29;20982;-56
2022/11/29 08:31:13;;;;;;;67.83;21.43;;;3.00;99.90;;;;;;4836665;29;20576;-56
2022/11/29 08:33:43;;;;;;;66.57;19.70;;;3.00;99.90;;;;;;4840060;29;20604;-58
2022/11/29 08:36:17;;;;;;;48.63;17.60;;;3.10;99.90;;;;;;4839113;29;20196;-58
2022/11/29 08:38:46;;;;;;;71.07;18.43;;;3.00;99.90;;;;;;4838188;29;20208;-58
2022/11/29 08:41:17;;;;;;;57.23;19.67;;;3.10;99.90;;;;;;4838283;29;20195;-58
2022/11/29 08:43:45;;;;;;;40.70;16.67;;;3.00;99.90;;;;;;4836639;29;20213;-57
2022/11/29 08:46:14;;;;;;;36.73;17.00;;;3.00;99.90;;;;;;4834699;29;21674;-58
2022/11/29 08:48:46;;;;;;;51.43;16.33;;;3.20;99.90;;;;;;4840773;29;20286;-58
2022/11/29 08:51:15;;;;;;;44.33;17.53;;;3.20;99.90;;;;;;4838674;29;21418;-58
2022/11/29 08:53:45;;;;;;;56.40;16.70;;;3.30;99.90;;;;;;4838470;29;20687;-58
2022/11/29 08:56:17;;;;;;;36.03;15.47;;;3.30;99.90;;;;;;4838078;29;20224;-57
2022/11/29 08:59:06;;;;;;;104.77;22.57;;;3.30;99.90;;;;;;4838293;29;20219;-57
2022/11/29 09:01:34;;;;;;;79.37;37.47;;;3.40;99.90;;;;;;4840005;29;21041;-58
2022/11/29 09:04:02;;;;;;;80.27;21.43;;;3.40;99.90;;;;;;4839855;29;20212;-58
2022/11/29 09:06:32;;;;;;;62.57;24.03;;;3.40;99.90;;;;;;4837965;29;20216;-57
2022/11/29 09:09:01;;;;;;;52.50;21.90;;;3.50;99.90;;;;;;4833267;29;20201;-57
2022/11/29 09:11:32;;;;;;;73.57;21.93;;;3.50;99.90;;;;;;4832082;29;20204;-58
2022/11/29 09:14:03;;;;;;;68.00;23.60;;;3.50;99.90;;;;;;4833858;29;20228;-58
2022/11/29 09:16:34;;;;;;;111.27;40.60;;;3.60;99.90;;;;;;4834307;29;20678;-57
2022/11/29 09:19:03;;;;;;;134.80;28.17;;;3.60;99.90;;;;;;4836524;29;20273;-57
2022/11/29 09:21:35;;;;;;;79.77;23.40;;;3.70;99.90;;;;;;4838193;29;20210;-58
2022/11/29 09:24:06;;;;;;;95.10;29.77;;;3.70;99.90;;;;;;4831202;29;20785;-58
2022/11/29 09:26:40;;;;;;;64.77;18.67;;;3.70;99.90;;;;;;4833344;29;21076;-59
2022/11/29 09:29:10;;;;;;;62.97;16.97;;;3.70;99.90;;;;;;4834092;29;20203;-59
2022/11/29 09:31:38;;;;;;;53.63;15.97;;;3.70;99.90;;;;;;4835952;29;20196;-58
2022/11/29 09:34:12;;;;;;;34.23;15.47;;;3.70;99.90;;;;;;4834623;29;20287;-58
2022/11/29 09:36:41;;;;;;;69.53;15.77;;;3.70;99.90;;;;;;4835140;29;20200;-57
2022/11/29 09:39:11;;;;;;;77.53;16.53;;;3.70;99.90;;;;;;4832800;29;20212;-58
2022/11/29 09:41:53;;;;;;;58.73;15.63;;;3.70;99.90;;;;;;4833862;29;20196;-58
2022/11/29 09:44:30;;;;;;;81.87;15.83;;;3.70;99.90;;;;;;4832195;29;20219;-58
2022/11/29 09:47:13;;;;;;;90.40;16.67;;;3.80;99.90;;;;;;4834445;29;20224;-55
2022/11/29 09:49:55;;;;;;;125.80;18.40;;;3.80;99.90;;;;;;4835294;29;20196;-58
2022/11/29 09:52:36;;;;;;;54.40;16.47;;;3.90;99.90;;;;;;4838651;29;20670;-58
2022/11/29 09:55:22;;;;;;;67.23;21.33;;;3.90;99.90;;;;;;4839552;29;20204;-58
2022/11/29 09:57:55;;;;;;;680.43;188.00;;;3.90;99.90;;;;;;4840277;29;20240;-56
2022/11/29 10:00:24;;;;;;;166.50;40.67;;;4.00;99.90;;;;;;4839730;29;20193;-58
2022/11/29 10:02:57;;;;;;;43.97;15.50;;;4.00;99.90;;;;;;4841677;29;20544;-58
2022/11/29 10:05:29;;;;;;;35.40;13.80;;;4.00;99.90;;;;;;4834153;29;20204;-59
2022/11/29 10:08:03;;;;;;;75.13;23.63;;;4.00;99.90;;;;;;4839029;29;20230;-58
2022/11/29 10:10:39;;;;;;;193.10;57.70;;;4.10;99.90;;;;;;4844047;29;20206;-58
2022/11/29 10:13:19;;;;;;;164.37;44.23;;;4.20;99.90;;;;;;4840450;29;20211;-58
2022/11/29 10:15:52;;;;;;;77.03;17.37;;;4.30;99.90;;;;;;4843673;29;20192;-58
2022/11/29 10:18:26;;;;;;;56.10;15.53;;;4.30;99.90;;;;;;4841130;29;20555;-57
2022/11/29 10:20:58;;;;;;;110.17;16.07;;;4.30;99.90;;;;;;4839845;29;20290;-58
2022/11/29 10:23:32;;;;;;;76.70;16.90;;;4.40;99.90;;;;;;4841722;29;20543;-58
2022/11/29 10:26:00;;;;;;;58.93;17.67;;;4.30;99.90;;;;;;4840636;29;20211;-58
2022/11/29 10:28:33;;;;;;;54.37;16.30;;;4.30;99.90;;;;;;4841970;29;20231;-58
2022/11/29 10:31:13;;;;;;;96.57;18.97;;;4.40;99.90;;;;;;4837112;29;20192;-58
2022/11/29 10:33:43;;;;;;;369.13;127.57;;;4.50;99.90;;;;;;4840962;29;20211;-57
2022/11/29 10:36:19;;;;;;;107.17;29.53;;;4.50;99.90;;;;;;4837901;29;20212;-58
2022/11/29 10:38:49;;;;;;;84.80;25.10;;;4.60;99.90;;;;;;4840757;29;20567;-58
2022/11/29 10:41:22;;;;;;;85.60;29.10;;;4.60;99.90;;;;;;4840470;29;20215;-58
2022/11/29 10:43:54;;;;;;;85.70;16.57;;;4.60;99.90;;;;;;4840943;29;20218;-58
2022/11/29 10:46:28;;;;;;;104.43;34.17;;;4.60;99.90;;;;;;4831060;29;20208;-58
2022/11/29 10:48:59;;;;;;;70.07;27.73;;;4.60;99.90;;;;;;4842382;29;20224;-58
2022/11/29 10:51:28;;;;;;;56.80;13.90;;;4.70;99.90;;;;;;4838452;29;20204;-58
2022/11/29 10:53:59;;;;;;;53.07;14.13;;;4.90;99.90;;;;;;4834041;29;20238;-58
2022/11/29 10:56:36;;;;;;;67.27;14.00;;;5.00;99.90;;;;;;4837443;29;20605;-58
2022/11/29 10:59:10;;;;;;;67.23;22.97;;;5.00;99.90;;;;;;4840675;29;20296;-59
2022/11/29 11:01:43;;;;;;;60.63;14.83;;;5.00;99.90;;;;;;4836741;29;20207;-58
2022/11/29 11:04:17;;;;;;;50.57;14.90;;;5.00;99.90;;;;;;4837163;29;20280;-58
2022/11/29 11:06:48;;;;;;;49.23;14.47;;;5.10;99.90;;;;;;4834939;29;20599;-58
2022/11/29 11:09:21;;;;;;;32.10;13.40;;;5.20;99.90;;;;;;4836716;29;20672;-58
2022/11/29 11:11:54;;;;;;;26.43;13.37;;;5.20;99.90;;;;;;4843429;29;20212;-58
2022/11/29 11:14:26;;;;;;;40.10;13.63;;;5.30;99.90;;;;;;4839126;29;20217;-58
2022/11/29 11:16:54;;;;;;;32.67;13.17;;;5.30;99.90;;;;;;4841498;29;20207;-59
2022/11/29 11:19:27;;;;;;;45.93;13.33;;;5.30;99.90;;;;;;4838215;29;20227;-58
2022/11/29 11:21:57;;;;;;;29.33;12.30;;;5.30;99.90;;;;;;4833413;29;20212;-57
2022/11/29 11:24:28;;;;;;;44.83;12.63;;;5.40;99.90;;;;;;4835413;29;20209;-57
2022/11/29 11:26:57;;;;;;;54.07;13.57;;;5.30;99.90;;;;;;4838867;29;20235;-57
2022/11/29 11:29:33;;;;;;;35.17;11.53;;;5.30;99.90;;;;;;4838616;29;20671;-57
2022/11/29 11:32:01;;;;;;;29.63;12.43;;;5.40;99.90;;;;;;4838322;29;20212;-57
2022/11/29 11:34:33;;;;;;;54.50;12.57;;;5.40;99.90;;;;;;4840108;29;20196;-57
2022/11/29 11:37:24;;;;;;;41.07;11.90;;;5.50;99.90;;;;;;4837198;29;20860;-57
2022/11/29 11:39:57;;;;;;;29.20;12.50;;;5.50;99.90;;;;;;4838309;29;20214;-58
2022/11/29 11:42:39;;;;;;;46.17;14.20;;;5.60;99.90;;;;;;4837408;29;20204;-58
2022/11/29 11:45:33;;;;;;;27.47;13.40;;;5.60;99.90;;;;;;4834664;29;22023;-57
2022/11/29 11:48:05;;;;;;;28.30;13.73;;;5.60;99.90;;;;;;4835104;29;20220;-57
2022/11/29 11:50:37;;;;;;;42.13;19.50;;;5.70;99.90;;;;;;4835185;29;20199;-58
2022/11/29 11:53:07;;;;;;;24.80;13.73;;;5.80;99.90;;;;;;4837385;29;20280;-57
2022/11/29 11:55:39;;;;;;;34.20;15.03;;;5.80;99.90;;;;;;4837748;29;20204;-57
2022/11/29 11:58:21;;;;;;;51.17;23.77;;;5.90;99.90;;;;;;4839406;29;20192;-57
2022/11/29 12:00:54;;;;;;;36.67;17.07;;;5.90;99.90;;;;;;4834311;29;20233;-57
2022/11/29 12:03:49;;;;;;;51.40;28.90;;;5.90;99.90;;;;;;4838415;29;20732;-56
2022/11/29 12:06:31;;;;;;;27.73;14.13;;;6.00;99.90;;;;;;4836290;29;20692;-57
2022/11/29 12:09:05;;;;;;;51.33;29.70;;;6.00;99.90;;;;;;4834296;29;20225;-57
2022/11/29 12:11:40;;;;;;;37.27;20.63;;;6.00;99.90;;;;;;4840344;29;20204;-57
2022/11/29 12:14:15;;;;;;;27.20;17.00;;;6.00;99.90;;;;;;4839079;29;20220;-57
2022/11/29 12:16:47;;;;;;;22.17;11.93;;;6.10;99.90;;;;;;4837828;29;20686;-57
2022/11/29 12:19:22;;;;;;;27.10;17.70;;;6.20;99.90;;;;;;4829254;29;20208;-58
2022/11/29 12:21:59;;;;;;;19.13;11.53;;;6.30;99.90;;;;;;4838545;29;20211;-57
2022/11/29 12:24:31;;;;;;;22.90;14.37;;;6.30;99.90;;;;;;4833958;29;20212;-57
2022/11/29 12:27:04;;;;;;;27.73;17.67;;;6.40;99.90;;;;;;4839566;29;20664;-57
2022/11/29 12:29:34;;;;;;;19.40;12.97;;;6.50;99.90;;;;;;4831038;29;20284;-56
2022/11/29 12:32:21;;;;;;;23.33;15.17;;;6.60;99.90;;;;;;4838285;29;20448;-57
2022/11/29 12:35:17;;;;;;;23.20;15.27;;;6.60;99.90;;;;;;4833375;29;20208;-57
2022/11/29 12:37:57;;;;;;;22.20;12.10;;;6.70;99.90;;;;;;4833917;29;20600;-58
2022/11/29 12:40:36;;;;;;;18.03;11.60;;;6.80;99.90;;;;;;4839946;29;20200;-56
2022/11/29 12:43:18;;;;;;;35.43;25.40;;;6.80;99.90;;;;;;4838081;29;20203;-58
2022/11/29 12:45:53;;;;;;;25.97;14.00;;;6.80;99.90;;;;;;4838996;29;20208;-57
2022/11/29 12:48:34;;;;;;;21.53;13.13;;;6.80;99.90;;;;;;4838283;29;20211;-58
2022/11/29 12:51:14;;;;;;;33.37;21.87;;;6.90;99.90;;;;;;4830346;29;20199;-57
2022/11/29 12:53:59;;;;;;;25.30;15.83;;;6.90;99.90;;;;;;4835657;29;20548;-57
2022/11/29 12:56:34;;;;;;;29.87;19.17;;;6.80;99.90;;;;;;4840328;29;20235;-57
2022/11/29 12:59:22;;;;;;;24.73;16.77;;;6.90;99.90;;;;;;4834978;29;20283;-57
2022/11/29 13:02:12;;;;;;;23.00;14.70;;;6.90;99.90;;;;;;4837657;29;20227;-57
2022/11/29 13:04:50;;;;;;;23.43;15.70;;;7.00;99.90;;;;;;4839119;29;20238;-57
2022/11/29 13:07:31;;;;;;;21.03;12.97;;;7.00;99.90;;;;;;4838172;29;20264;-57
2022/11/29 13:10:44;;;;;;;39.53;23.30;;;7.00;99.90;;;;;;4838964;29;20232;-58
2022/11/29 13:13:24;;;;;;;24.20;13.07;;;7.10;99.90;;;;;;4811830;29;20216;-57
2022/11/29 13:16:02;;;;;;;24.40;14.17;;;7.00;99.90;;;;;;4835001;29;20218;-57
2022/11/29 13:18:38;;;;;;;26.80;13.73;;;7.00;99.90;;;;;;4835309;29;20204;-57
2022/11/29 13:21:14;;;;;;;30.83;19.07;;;7.00;99.90;;;;;;4834682;29;20201;-57
2022/11/29 13:23:50;;;;;;;26.57;15.53;;;7.00;99.90;;;;;;4839293;29;20517;-57
2022/11/29 13:26:37;;;;;;;25.80;15.13;;;7.00;99.90;;;;;;4838146;29;20204;-57
2022/11/29 13:29:07;;;;;;;26.43;16.30;;;7.10;99.90;;;;;;4842345;29;20231;-57